Time,TemperatureF,DewpointF,PressureIn,WindDirection,WindDirectionDegrees,WindSpeedMPH,WindSpeedGustMPH,Humidity,HourlyPrecipIn,Conditions,Clouds,dailyrainin,SoftwareType,DateUTC
2013-03-24 00:00:00,49.0,49.0,29.11,NW,315,9.2,9.2,100,0.01,RA,,0.00,WeatherDisplay:10.37,2013-03-24 05:00:00,
2013-03-24 00:05:00,49.0,49.0,29.12,WNW,292,11.0,11.0,100,0.02,RA,,0.01,WeatherDisplay:10.37,2013-03-24 05:05:00,
2013-03-24 00:10:00,49.0,49.0,29.11,WNW,292,13.8,13.8,100,0.02,RA,,0.01,WeatherDisplay:10.37,2013-03-24 05:10:00,
2013-03-24 00:15:00,49.0,49.0,29.11,North,360,12.0,12.0,100,0.02,CLR,,0.01,WeatherDisplay:10.37,2013-03-24 05:15:00,
2013-03-24 00:20:00,48.0,48.0,29.08,NW,315,15.0,15.0,100,0.03,RA,,0.02,WeatherDisplay:10.37,2013-03-24 05:20:00,
2013-03-24 00:25:00,48.0,48.0,29.06,NW,315,16.0,16.0,100,0.03,RA,,0.02,WeatherDisplay:10.37,2013-03-24 05:25:00,
2013-03-24 00:30:00,48.0,48.0,29.09,NW,315,15.0,15.0,100,0.03,,,0.02,WeatherDisplay:10.37,2013-03-24 05:30:00,
2013-03-24 00:35:00,48.0,48.0,29.09,NNW,337,19.6,19.6,100,0.03,CLR,,0.02,WeatherDisplay:10.37,2013-03-24 05:35:00,
2013-03-24 00:40:00,48.0,48.0,29.07,WNW,292,19.6,19.6,100,0.03,CLR,,0.02,WeatherDisplay:10.37,2013-03-24 05:40:00,
2013-03-24 00:45:00,48.0,48.0,29.09,NW,315,17.0,17.0,100,0.03,CLR,,0.02,WeatherDisplay:10.37,2013-03-24 05:45:00,
2013-03-24 00:50:00,48.0,47.7,29.11,WNW,292,12.0,12.0,99,0.03,CLR,,0.02,WeatherDisplay:10.37,2013-03-24 05:50:00,
2013-03-24 00:55:00,48.0,46.9,29.11,NNW,337,19.6,19.6,96,0.02,CLR,,0.02,WeatherDisplay:10.37,2013-03-24 05:55:00,
2013-03-24 01:00:00,48.0,46.6,29.11,NNW,337,16.1,16.1,95,0.02,CLR,,0.02,WeatherDisplay:10.37,2013-03-24 06:00:00,
2013-03-24 01:05:00,48.0,46.9,29.11,NW,315,16.0,16.0,96,0.01,CLR,,0.02,WeatherDisplay:10.37,2013-03-24 06:05:00,
2013-03-24 01:10:00,47.0,45.9,29.11,NW,315,20.0,20.0,96,0.01,CLR,,0.02,WeatherDisplay:10.37,2013-03-24 06:10:00,
2013-03-24 01:15:00,47.0,46.2,29.10,WNW,292,10.4,10.4,97,0.01,CLR,,0.02,WeatherDisplay:10.37,2013-03-24 06:15:00,
2013-03-24 01:20:00,47.0,46.2,29.11,NW,315,11.5,11.5,97,0.00,CLR,,0.02,WeatherDisplay:10.37,2013-03-24 06:20:00,
2013-03-24 01:25:00,47.0,46.2,29.11,NW,315,11.5,11.5,97,0.00,CLR,,0.02,WeatherDisplay:10.37,2013-03-24 06:25:00,
2013-03-24 01:30:00,47.0,46.2,29.12,WNW,292,10.4,10.4,97,0.00,CLR,,0.02,WeatherDisplay:10.37,2013-03-24 06:30:00,
2013-03-24 01:35:00,47.0,46.2,29.11,NW,315,11.5,11.5,97,0.00,CLR,,0.02,WeatherDisplay:10.37,2013-03-24 06:35:00,
2013-03-24 01:40:00,47.0,45.4,29.12,NW,315,12.0,12.0,94,0.00,CLR,,0.02,WeatherDisplay:10.37,2013-03-24 06:40:00,
2013-03-24 01:45:00,47.0,45.4,29.13,NW,315,15.0,15.0,94,0.00,CLR,,0.02,WeatherDisplay:10.37,2013-03-24 06:45:00,
2013-03-24 01:50:00,47.0,44.8,29.12,NNW,337,12.7,12.7,92,0.00,CLR,,0.02,WeatherDisplay:10.37,2013-03-24 06:50:00,
2013-03-24 01:55:00,46.0,43.8,29.13,NNW,337,12.0,12.0,92,0.00,CLR,,0.02,WeatherDisplay:10.37,2013-03-24 06:55:00,
2013-03-24 02:00:00,46.0,44.1,29.14,WNW,292,12.0,12.0,93,0.01,RA,,0.03,WeatherDisplay:10.37,2013-03-24 07:00:00,
2013-03-24 02:05:00,46.0,44.4,29.14,WNW,292,14.0,14.0,94,0.01,RA,,0.03,WeatherDisplay:10.37,2013-03-24 07:05:00,
2013-03-24 02:11:00,46.0,44.4,29.13,NW,315,16.1,16.1,94,0.01,,,0.03,WeatherDisplay:10.37,2013-03-24 07:11:00,
2013-03-24 02:16:00,46.0,44.9,29.14,NW,315,9.2,9.2,96,0.01,CLR,,0.03,WeatherDisplay:10.37,2013-03-24 07:16:00,
2013-03-24 02:21:00,46.0,44.4,29.13,NNW,337,9.2,9.2,94,0.01,CLR,,0.03,WeatherDisplay:10.37,2013-03-24 07:21:00,
2013-03-24 02:26:00,46.0,44.4,29.14,NW,315,11.5,11.5,94,0.01,CLR,,0.03,WeatherDisplay:10.37,2013-03-24 07:26:00,
2013-03-24 02:31:00,46.0,44.1,29.13,West,270,12.7,12.7,93,0.01,CLR,,0.03,WeatherDisplay:10.37,2013-03-24 07:31:00,
2013-03-24 02:36:00,46.0,43.8,29.13,West,270,11.5,11.5,92,0.01,CLR,,0.03,WeatherDisplay:10.37,2013-03-24 07:36:00,
2013-03-24 02:41:00,46.0,44.1,29.13,WNW,292,10.4,10.4,93,0.01,CLR,,0.03,WeatherDisplay:10.37,2013-03-24 07:41:00,
2013-03-24 02:46:00,45.0,43.4,29.13,WNW,292,9.2,9.2,94,0.01,CLR,,0.03,WeatherDisplay:10.37,2013-03-24 07:46:00,
2013-03-24 02:51:00,45.0,42.5,29.13,NW,315,10.4,10.4,91,0.01,CLR,,0.03,WeatherDisplay:10.37,2013-03-24 07:51:00,
2013-03-24 02:56:00,45.0,42.2,29.13,NNW,337,15.0,15.0,90,0.01,CLR,,0.03,WeatherDisplay:10.37,2013-03-24 07:56:00,
2013-03-24 03:01:00,45.0,42.5,29.14,West,270,11.5,11.5,91,0.00,CLR,,0.03,WeatherDisplay:10.37,2013-03-24 08:01:00,
2013-03-24 03:06:00,45.0,42.2,29.14,West,270,20.0,20.0,90,0.00,CLR,,0.03,WeatherDisplay:10.37,2013-03-24 08:06:00,
2013-03-24 03:11:00,44.0,41.3,29.15,NW,315,16.1,16.1,90,0.00,CLR,,0.03,WeatherDisplay:10.37,2013-03-24 08:11:00,
2013-03-24 03:16:00,44.0,41.0,29.14,WNW,292,17.3,17.3,89,0.00,CLR,,0.03,WeatherDisplay:10.37,2013-03-24 08:16:00,
2013-03-24 03:21:00,44.0,41.0,29.15,WNW,292,18.0,18.0,89,0.00,CLR,,0.03,WeatherDisplay:10.37,2013-03-24 08:21:00,
2013-03-24 03:26:00,44.0,40.1,29.15,NW,315,18.4,18.4,86,0.00,CLR,,0.03,WeatherDisplay:10.37,2013-03-24 08:26:00,
2013-03-24 03:31:00,43.0,38.8,29.15,West,270,18.0,18.0,85,0.00,CLR,,0.03,WeatherDisplay:10.37,2013-03-24 08:31:00,
2013-03-24 03:37:00,43.0,38.8,29.15,NNW,337,16.1,16.1,85,0.00,CLR,,0.03,WeatherDisplay:10.37,2013-03-24 08:37:00,
2013-03-24 03:42:00,43.0,38.5,29.15,West,270,16.1,16.1,84,0.00,CLR,,0.03,WeatherDisplay:10.37,2013-03-24 08:42:00,
2013-03-24 03:47:00,43.0,38.8,29.15,WNW,292,15.0,15.0,85,0.00,CLR,,0.03,WeatherDisplay:10.37,2013-03-24 08:47:00,
2013-03-24 03:52:00,43.0,37.9,29.15,NW,315,15.0,15.0,82,0.00,CLR,,0.03,WeatherDisplay:10.37,2013-03-24 08:52:00,
2013-03-24 03:57:00,43.0,38.2,29.16,West,270,12.0,12.0,83,0.00,CLR,,0.03,WeatherDisplay:10.37,2013-03-24 08:57:00,
2013-03-24 04:02:00,43.0,37.9,29.17,WNW,292,11.5,11.5,82,0.00,CLR,,0.03,WeatherDisplay:10.37,2013-03-24 09:02:00,
2013-03-24 04:07:00,42.0,36.3,29.16,WNW,292,24.0,24.0,80,0.00,CLR,,0.03,WeatherDisplay:10.37,2013-03-24 09:07:00,
2013-03-24 04:12:00,42.0,36.0,29.17,NW,315,12.7,12.8,79,0.00,CLR,,0.03,WeatherDisplay:10.37,2013-03-24 09:12:00,
2013-03-24 04:17:00,42.0,36.6,29.17,NNW,337,8.1,8.1,81,0.00,CLR,,0.03,WeatherDisplay:10.37,2013-03-24 09:17:00,
2013-03-24 04:22:00,42.0,36.0,29.17,West,270,19.6,19.6,79,0.00,CLR,,0.03,WeatherDisplay:10.37,2013-03-24 09:22:00,
2013-03-24 04:27:00,42.0,36.3,29.17,WNW,292,12.7,12.7,80,0.00,CLR,,0.03,WeatherDisplay:10.37,2013-03-24 09:27:00,
2013-03-24 04:32:00,42.0,36.0,29.18,NW,315,10.4,10.4,79,0.00,CLR,,0.03,WeatherDisplay:10.37,2013-03-24 09:32:00,
2013-03-24 04:37:00,42.0,35.3,29.18,NW,315,11.5,11.5,77,0.00,CLR,,0.03,WeatherDisplay:10.37,2013-03-24 09:37:00,
2013-03-24 04:42:00,41.0,34.0,29.18,WNW,292,19.6,19.6,76,0.00,CLR,,0.03,WeatherDisplay:10.37,2013-03-24 09:42:00,
2013-03-24 04:47:00,41.0,34.7,29.18,SW,225,12.7,12.7,78,0.00,CLR,,0.03,WeatherDisplay:10.37,2013-03-24 09:47:00,
2013-03-24 04:52:00,41.0,34.0,29.18,West,270,11.0,11.0,76,0.00,CLR,,0.03,WeatherDisplay:10.37,2013-03-24 09:52:00,
2013-03-24 04:57:00,41.0,34.3,29.18,West,270,13.8,13.8,77,0.00,CLR,,0.03,WeatherDisplay:10.37,2013-03-24 09:57:00,
2013-03-24 05:02:00,41.0,34.0,29.18,West,270,18.4,18.4,76,0.00,CLR,,0.03,WeatherDisplay:10.37,2013-03-24 10:02:00,
2013-03-24 05:07:00,41.0,34.3,29.19,NNW,337,15.0,15.0,77,0.00,CLR,,0.03,WeatherDisplay:10.37,2013-03-24 10:07:00,
2013-03-24 05:12:00,41.0,34.3,29.19,WNW,292,10.4,10.4,77,0.00,CLR,,0.03,WeatherDisplay:10.37,2013-03-24 10:12:00,
2013-03-24 05:17:00,41.0,34.0,29.19,WNW,292,12.7,12.7,76,0.00,CLR,,0.03,WeatherDisplay:10.37,2013-03-24 10:17:00,
2013-03-24 05:22:00,41.0,33.3,29.19,West,270,15.0,15.0,74,0.00,CLR,,0.03,WeatherDisplay:10.37,2013-03-24 10:22:00,
2013-03-24 05:27:00,40.0,31.7,29.19,West,270,18.4,18.4,72,0.00,CLR,,0.03,WeatherDisplay:10.37,2013-03-24 10:27:00,
2013-03-24 05:33:00,40.0,31.7,29.19,NW,315,13.0,13.0,72,0.00,CLR,,0.03,WeatherDisplay:10.37,2013-03-24 10:33:00,
2013-03-24 05:38:00,40.0,31.0,29.19,NW,315,21.9,21.9,70,0.00,CLR,,0.03,WeatherDisplay:10.37,2013-03-24 10:38:00,
2013-03-24 05:43:00,40.0,31.0,29.21,West,270,13.8,13.8,70,0.00,CLR,,0.03,WeatherDisplay:10.37,2013-03-24 10:43:00,
2013-03-24 05:48:00,39.0,30.4,29.21,NNW,337,17.3,17.3,71,0.00,CLR,,0.03,WeatherDisplay:10.37,2013-03-24 10:48:00,
2013-03-24 05:53:00,39.0,30.4,29.21,NW,315,15.0,15.0,71,0.00,CLR,,0.03,WeatherDisplay:10.37,2013-03-24 10:53:00,
2013-03-24 05:58:00,39.0,30.0,29.21,WNW,292,19.6,19.6,70,0.00,CLR,,0.03,WeatherDisplay:10.37,2013-03-24 10:58:00,
2013-03-24 06:03:00,39.0,30.0,29.21,NW,315,12.0,12.0,70,0.00,CLR,,0.03,WeatherDisplay:10.37,2013-03-24 11:03:00,
2013-03-24 06:08:00,39.0,30.0,29.21,WNW,292,12.7,12.7,70,0.00,CLR,,0.03,WeatherDisplay:10.37,2013-03-24 11:08:00,
2013-03-24 06:13:00,39.0,30.4,29.22,NW,315,12.7,12.7,71,0.00,CLR,,0.03,WeatherDisplay:10.37,2013-03-24 11:13:00,
2013-03-24 06:18:00,39.0,30.0,29.22,NNW,337,13.0,13.0,70,0.00,CLR,,0.03,WeatherDisplay:10.37,2013-03-24 11:18:00,
2013-03-24 06:23:00,39.0,30.0,29.22,WNW,292,10.4,10.4,70,0.00,CLR,,0.03,WeatherDisplay:10.37,2013-03-24 11:23:00,
2013-03-24 06:28:00,39.0,30.0,29.22,West,270,13.8,13.8,70,0.00,CLR,,0.03,WeatherDisplay:10.37,2013-03-24 11:28:00,
2013-03-24 06:33:00,39.0,30.4,29.22,West,270,9.2,9.2,71,0.00,CLR,,0.03,WeatherDisplay:10.37,2013-03-24 11:33:00,
2013-03-24 06:38:00,39.0,30.4,29.21,WNW,292,15.0,15.0,71,0.00,CLR,,0.03,WeatherDisplay:10.37,2013-03-24 11:38:00,
2013-03-24 06:43:00,39.0,30.4,29.22,West,270,11.5,11.5,71,0.00,CLR,,0.03,WeatherDisplay:10.37,2013-03-24 11:43:00,
2013-03-24 06:49:00,40.0,31.4,29.22,NW,315,10.4,10.4,71,0.00,CLR,,0.03,WeatherDisplay:10.37,2013-03-24 11:49:00,
2013-03-24 06:54:00,39.0,30.4,29.22,West,270,12.7,12.7,71,0.00,CLR,,0.03,WeatherDisplay:10.37,2013-03-24 11:54:00,
2013-03-24 06:59:00,39.0,30.0,29.22,NW,315,25.3,25.3,70,0.00,CLR,,0.03,WeatherDisplay:10.37,2013-03-24 11:59:00,
2013-03-24 07:04:00,39.0,30.0,29.23,NNW,337,15.0,15.0,70,0.00,CLR,,0.03,WeatherDisplay:10.37,2013-03-24 12:04:00,
2013-03-24 07:09:00,39.0,30.4,29.23,WNW,292,16.1,16.1,71,0.00,CLR,,0.03,WeatherDisplay:10.37,2013-03-24 12:09:00,
2013-03-24 07:14:00,39.0,30.4,29.24,WNW,292,18.4,18.4,71,0.00,CLR,,0.03,WeatherDisplay:10.37,2013-03-24 12:14:00,
2013-03-24 07:19:00,39.0,30.4,29.24,WNW,292,9.2,9.2,71,0.00,CLR,,0.03,WeatherDisplay:10.37,2013-03-24 12:19:00,
2013-03-24 07:24:00,39.0,30.4,29.24,NW,315,17.3,17.3,71,0.00,CLR,,0.03,WeatherDisplay:10.37,2013-03-24 12:24:00,
2013-03-24 07:29:00,39.0,30.4,29.25,WNW,292,12.0,12.0,71,0.00,CLR,,0.03,WeatherDisplay:10.37,2013-03-24 12:29:00,
2013-03-24 07:34:00,39.0,30.4,29.25,WNW,292,9.2,9.2,71,0.00,CLR,,0.03,WeatherDisplay:10.37,2013-03-24 12:34:00,
2013-03-24 07:39:00,39.0,30.0,29.25,West,270,11.5,11.5,70,0.00,CLR,,0.03,WeatherDisplay:10.37,2013-03-24 12:39:00,
2013-03-24 07:44:00,39.0,30.0,29.25,NW,315,12.7,12.7,70,0.00,CLR,,0.03,WeatherDisplay:10.37,2013-03-24 12:44:00,
2013-03-24 07:49:00,39.0,30.0,29.26,WNW,292,11.5,11.5,70,0.00,CLR,,0.03,WeatherDisplay:10.37,2013-03-24 12:49:00,
2013-03-24 07:54:00,39.0,30.0,29.26,WNW,292,10.4,10.4,70,0.00,CLR,,0.03,WeatherDisplay:10.37,2013-03-24 12:54:00,
2013-03-24 07:59:00,39.0,29.3,29.27,NNW,337,15.0,15.0,68,0.00,CLR,,0.03,WeatherDisplay:10.37,2013-03-24 12:59:00,
2013-03-24 08:04:00,39.0,29.7,29.27,NNW,337,11.5,11.5,69,0.00,CLR,,0.03,WeatherDisplay:10.37,2013-03-24 13:04:00,
2013-03-24 08:09:00,39.0,30.0,29.27,WNW,292,9.2,9.2,70,0.00,CLR,,0.03,WeatherDisplay:10.37,2013-03-24 13:09:00,
2013-03-24 08:14:00,39.0,30.0,29.27,NNW,337,12.7,12.7,70,0.00,CLR,,0.03,WeatherDisplay:10.37,2013-03-24 13:14:00,
2013-03-24 08:19:00,39.0,29.3,29.27,NNW,337,15.0,15.0,68,0.00,CLR,,0.03,WeatherDisplay:10.37,2013-03-24 13:19:00,
2013-03-24 08:24:00,39.0,29.3,29.28,NW,315,10.4,10.4,68,0.00,CLR,,0.03,WeatherDisplay:10.37,2013-03-24 13:24:00,
2013-03-24 08:29:00,39.0,28.2,29.28,NW,315,10.4,10.4,65,0.00,CLR,,0.03,WeatherDisplay:10.37,2013-03-24 13:29:00,
2013-03-24 08:34:00,39.0,28.6,29.28,West,270,11.5,11.5,66,0.00,CLR,,0.03,WeatherDisplay:10.37,2013-03-24 13:34:00,
2013-03-24 08:39:00,39.0,29.0,29.29,NW,315,12.7,12.7,67,0.00,CLR,,0.03,WeatherDisplay:10.37,2013-03-24 13:39:00,
2013-03-24 08:44:00,39.0,29.3,29.29,West,270,11.5,11.5,68,0.00,CLR,,0.03,WeatherDisplay:10.37,2013-03-24 13:44:00,
2013-03-24 08:49:00,39.0,29.3,29.29,NW,315,16.1,16.1,68,0.00,CLR,,0.03,WeatherDisplay:10.37,2013-03-24 13:49:00,
2013-03-24 08:54:00,39.0,29.3,29.29,WNW,292,11.5,11.5,68,0.00,CLR,,0.03,WeatherDisplay:10.37,2013-03-24 13:54:00,
2013-03-24 08:59:00,39.0,29.3,29.29,WNW,292,11.5,11.5,68,0.00,CLR,,0.03,WeatherDisplay:10.37,2013-03-24 13:59:00,
2013-03-24 09:04:00,39.0,30.0,29.30,WNW,292,10.4,10.4,70,0.00,CLR,,0.03,WeatherDisplay:10.37,2013-03-24 14:04:00,
2013-03-24 09:09:00,39.0,29.7,29.29,NW,315,15.0,15.0,69,0.00,CLR,,0.03,WeatherDisplay:10.37,2013-03-24 14:09:00,
2013-03-24 09:14:00,39.0,29.7,29.30,NW,315,13.0,13.0,69,0.00,CLR,,0.03,WeatherDisplay:10.37,2013-03-24 14:14:00,
2013-03-24 09:19:00,39.0,29.7,29.31,West,270,12.0,12.0,69,0.00,CLR,,0.03,WeatherDisplay:10.37,2013-03-24 14:19:00,
2013-03-24 09:24:00,39.0,29.0,29.31,NW,315,24.2,24.2,67,0.00,CLR,,0.03,WeatherDisplay:10.37,2013-03-24 14:24:00,
2013-03-24 09:29:00,39.0,27.8,29.32,North,360,10.4,11.9,64,0.00,CLR,,0.03,WeatherDisplay:10.37,2013-03-24 14:29:00,
2013-03-24 09:34:00,40.0,28.4,29.32,NW,315,21.9,21.9,63,0.00,CLR,,0.03,WeatherDisplay:10.37,2013-03-24 14:34:00,
2013-03-24 09:39:00,40.0,27.6,29.32,WNW,292,23.0,23.0,61,0.00,CLR,,0.03,WeatherDisplay:10.37,2013-03-24 14:39:00,
2013-03-24 09:44:00,40.0,28.0,29.32,NW,315,21.9,21.9,62,0.00,CLR,,0.03,WeatherDisplay:10.37,2013-03-24 14:44:00,
2013-03-24 09:49:00,40.0,27.6,29.32,WNW,292,19.6,19.6,61,0.00,CLR,,0.03,WeatherDisplay:10.37,2013-03-24 14:49:00,
2013-03-24 09:54:00,40.0,28.0,29.32,WNW,292,22.0,22.0,62,0.00,CLR,,0.03,WeatherDisplay:10.37,2013-03-24 14:54:00,
2013-03-24 09:59:00,40.0,28.4,29.33,West,270,16.1,16.1,63,0.00,CLR,,0.03,WeatherDisplay:10.37,2013-03-24 14:59:00,
2013-03-24 10:04:00,40.0,28.4,29.33,NW,315,17.3,17.3,63,0.00,CLR,,0.03,WeatherDisplay:10.37,2013-03-24 15:04:00,
2013-03-24 10:09:00,40.0,28.4,29.33,West,270,16.1,16.1,63,0.00,CLR,,0.03,WeatherDisplay:10.37,2013-03-24 15:09:00,
2013-03-24 10:14:00,41.0,28.6,29.33,WNW,292,13.0,13.0,61,0.00,CLR,,0.03,WeatherDisplay:10.37,2013-03-24 15:14:00,
2013-03-24 10:19:00,41.0,27.8,29.34,WNW,292,18.4,18.4,59,0.00,CLR,,0.03,WeatherDisplay:10.37,2013-03-24 15:19:00,
2013-03-24 10:24:00,41.0,28.2,29.34,WNW,292,19.6,19.6,60,0.00,CLR,,0.03,WeatherDisplay:10.37,2013-03-24 15:24:00,
2013-03-24 10:29:00,41.0,27.8,29.33,West,270,13.8,13.8,59,0.00,CLR,,0.03,WeatherDisplay:10.37,2013-03-24 15:29:00,
2013-03-24 10:35:00,41.0,27.8,29.33,NW,315,17.0,17.0,59,0.00,CLR,,0.03,WeatherDisplay:10.37,2013-03-24 15:35:00,
2013-03-24 10:40:00,42.0,27.9,29.34,NNW,337,19.6,19.6,57,0.00,CLR,,0.03,WeatherDisplay:10.37,2013-03-24 15:40:00,
2013-03-24 10:45:00,42.0,27.9,29.35,West,270,17.3,17.3,57,0.00,CLR,,0.03,WeatherDisplay:10.37,2013-03-24 15:45:00,
2013-03-24 10:50:00,42.0,27.9,29.34,North,360,17.3,17.3,57,0.00,CLR,,0.03,WeatherDisplay:10.37,2013-03-24 15:50:00,
2013-03-24 10:55:00,42.0,27.9,29.35,NW,315,13.8,13.8,57,0.00,CLR,,0.03,WeatherDisplay:10.37,2013-03-24 15:55:00,
2013-03-24 11:00:00,42.0,27.4,29.35,West,270,15.0,15.0,56,0.00,CLR,,0.03,WeatherDisplay:10.37,2013-03-24 16:00:00,
2013-03-24 11:05:00,43.0,29.2,29.35,WSW,247,7.0,7.0,58,0.00,CLR,,0.03,WeatherDisplay:10.37,2013-03-24 16:05:00,
2013-03-24 11:10:00,43.0,27.5,29.35,NW,315,19.6,19.6,54,0.00,CLR,,0.03,WeatherDisplay:10.37,2013-03-24 16:10:00,
2013-03-24 11:15:00,42.0,27.4,29.36,NNW,337,18.4,18.4,56,0.00,CLR,,0.03,WeatherDisplay:10.37,2013-03-24 16:15:00,
2013-03-24 11:20:00,44.0,29.3,29.35,NW,315,17.3,17.3,56,0.00,CLR,,0.03,WeatherDisplay:10.37,2013-03-24 16:20:00,
2013-03-24 11:25:00,44.0,28.9,29.36,West,270,11.5,11.5,55,0.00,CLR,,0.03,WeatherDisplay:10.37,2013-03-24 16:25:00,
2013-03-24 11:30:00,43.0,27.0,29.36,North,360,13.0,13.0,53,0.00,CLR,,0.03,WeatherDisplay:10.37,2013-03-24 16:30:00,
2013-03-24 11:35:00,43.0,27.0,29.36,WSW,247,16.1,16.1,53,0.00,CLR,,0.03,WeatherDisplay:10.37,2013-03-24 16:35:00,
2013-03-24 11:40:00,44.0,28.0,29.36,NW,315,18.4,18.4,53,0.00,CLR,,0.03,WeatherDisplay:10.37,2013-03-24 16:40:00,
2013-03-24 11:45:00,44.0,28.9,29.36,WNW,292,14.0,14.0,55,0.00,CLR,,0.03,WeatherDisplay:10.37,2013-03-24 16:45:00,
2013-03-24 11:50:00,44.0,28.0,29.36,WNW,292,10.4,10.4,53,0.00,CLR,,0.03,WeatherDisplay:10.37,2013-03-24 16:50:00,
2013-03-24 11:55:00,45.0,28.4,29.37,NW,315,16.0,16.0,52,0.00,CLR,,0.03,WeatherDisplay:10.37,2013-03-24 16:55:00,
2013-03-24 12:00:00,45.0,28.4,29.37,NW,315,16.1,16.1,52,0.00,CLR,,0.03,WeatherDisplay:10.37,2013-03-24 17:00:00,
2013-03-24 12:05:00,45.0,27.5,29.37,NW,315,17.3,17.3,50,0.00,CLR,,0.03,WeatherDisplay:10.37,2013-03-24 17:05:00,
2013-03-24 12:10:00,45.0,28.4,29.37,West,270,12.7,13.0,52,0.00,CLR,,0.03,WeatherDisplay:10.37,2013-03-24 17:10:00,
2013-03-24 12:15:00,45.0,27.5,29.37,West,270,15.0,15.0,50,0.00,CLR,,0.03,WeatherDisplay:10.37,2013-03-24 17:15:00,
2013-03-24 12:20:00,45.0,27.9,29.37,WNW,292,12.7,12.7,51,0.00,CLR,,0.03,WeatherDisplay:10.37,2013-03-24 17:20:00,
2013-03-24 12:25:00,46.0,28.4,29.37,West,270,12.7,12.7,50,0.00,CLR,,0.03,WeatherDisplay:10.37,2013-03-24 17:25:00,
2013-03-24 12:30:00,46.0,27.4,29.37,NW,315,17.3,17.3,48,0.00,CLR,,0.03,WeatherDisplay:10.37,2013-03-24 17:30:00,
2013-03-24 12:35:00,46.0,27.4,29.37,WNW,292,14.0,14.0,48,0.00,CLR,,0.03,WeatherDisplay:10.37,2013-03-24 17:35:00,
2013-03-24 12:40:00,47.0,29.3,29.37,NW,315,10.4,10.4,50,0.00,CLR,,0.03,WeatherDisplay:10.37,2013-03-24 17:40:00,
2013-03-24 12:45:00,46.0,27.4,29.37,WNW,292,17.3,17.3,48,0.00,CLR,,0.03,WeatherDisplay:10.37,2013-03-24 17:45:00,
2013-03-24 12:50:00,46.0,26.9,29.36,NNW,337,12.0,12.0,47,0.00,CLR,,0.03,WeatherDisplay:10.37,2013-03-24 17:50:00,
2013-03-24 12:55:00,46.0,26.9,29.37,SW,225,11.5,11.5,47,0.00,CLR,,0.03,WeatherDisplay:10.37,2013-03-24 17:55:00,
2013-03-24 13:00:00,47.0,27.8,29.36,West,270,25.3,25.3,47,0.00,CLR,,0.03,WeatherDisplay:10.37,2013-03-24 18:00:00,
2013-03-24 13:05:00,47.0,28.3,29.37,NW,315,18.4,18.4,48,0.00,CLR,,0.03,WeatherDisplay:10.37,2013-03-24 18:05:00,
2013-03-24 13:10:00,47.0,27.8,29.36,West,270,13.0,13.0,47,0.00,CLR,,0.03,WeatherDisplay:10.37,2013-03-24 18:10:00,
2013-03-24 13:15:00,47.0,26.7,29.35,West,270,12.7,12.7,45,0.00,CLR,,0.03,WeatherDisplay:10.37,2013-03-24 18:15:00,
2013-03-24 13:20:00,48.0,27.6,29.36,NW,315,19.6,19.6,45,0.00,CLR,,0.03,WeatherDisplay:10.37,2013-03-24 18:20:00,
2013-03-24 13:25:00,48.0,26.5,29.36,West,270,26.5,26.5,43,0.00,CLR,,0.03,WeatherDisplay:10.37,2013-03-24 18:25:00,
2013-03-24 13:30:00,48.0,28.2,29.36,NNE,22,10.4,10.4,46,0.00,CLR,,0.03,WeatherDisplay:10.37,2013-03-24 18:30:00,
2013-03-24 13:36:00,48.0,27.6,29.36,NW,315,15.0,15.0,45,0.00,CLR,,0.03,WeatherDisplay:10.37,2013-03-24 18:36:00,
2013-03-24 13:40:00,49.0,26.9,29.36,NW,315,16.1,16.1,42,0.00,CLR,,0.03,WeatherDisplay:10.37,2013-03-24 18:40:00,
2013-03-24 13:45:00,48.0,26.5,29.36,WNW,292,21.9,21.9,43,0.00,CLR,,0.03,WeatherDisplay:10.37,2013-03-24 18:45:00,
2013-03-24 13:51:00,49.0,27.5,29.35,West,270,13.0,13.0,43,0.00,CLR,,0.03,WeatherDisplay:10.37,2013-03-24 18:51:00,
2013-03-24 13:56:00,48.0,26.0,29.36,NNW,337,19.0,19.0,42,0.00,CLR,,0.03,WeatherDisplay:10.37,2013-03-24 18:56:00,
2013-03-24 14:01:00,49.0,26.9,29.35,WNW,292,17.3,17.3,42,0.00,CLR,,0.03,WeatherDisplay:10.37,2013-03-24 19:01:00,
2013-03-24 14:06:00,49.0,26.9,29.35,NW,315,22.0,22.0,42,0.00,CLR,,0.03,WeatherDisplay:10.37,2013-03-24 19:06:00,
2013-03-24 14:11:00,49.0,26.3,29.36,WNW,292,21.9,21.9,41,0.00,CLR,,0.03,WeatherDisplay:10.37,2013-03-24 19:11:00,
2013-03-24 14:16:00,49.0,25.7,29.35,NW,315,12.7,12.7,40,0.00,CLR,,0.03,WeatherDisplay:10.37,2013-03-24 19:16:00,
2013-03-24 14:21:00,49.0,26.9,29.36,NW,315,16.1,16.1,42,0.00,CLR,,0.03,WeatherDisplay:10.37,2013-03-24 19:21:00,
2013-03-24 14:26:00,49.0,27.5,29.36,NW,315,19.6,19.6,43,0.00,CLR,,0.03,WeatherDisplay:10.37,2013-03-24 19:26:00,
2013-03-24 14:31:00,50.0,27.2,29.36,NW,315,16.1,16.1,41,0.00,CLR,,0.03,WeatherDisplay:10.37,2013-03-24 19:31:00,
2013-03-24 14:36:00,50.0,27.8,29.35,NNW,337,19.6,19.6,42,0.00,CLR,,0.03,WeatherDisplay:10.37,2013-03-24 19:36:00,
2013-03-24 14:41:00,50.0,26.6,29.35,NW,315,10.4,10.4,40,0.00,CLR,,0.03,WeatherDisplay:10.37,2013-03-24 19:41:00,
2013-03-24 14:46:00,50.0,27.2,29.36,WSW,247,11.5,11.5,41,0.00,CLR,,0.03,WeatherDisplay:10.37,2013-03-24 19:46:00,
2013-03-24 14:51:00,50.0,26.6,29.35,NNW,337,13.8,13.8,40,0.00,CLR,,0.03,WeatherDisplay:10.37,2013-03-24 19:51:00,
2013-03-24 14:56:00,51.0,26.9,29.35,WNW,292,13.8,13.8,39,0.00,CLR,,0.03,WeatherDisplay:10.37,2013-03-24 19:56:00,
2013-03-24 15:01:00,51.0,26.9,29.35,NW,315,14.0,14.0,39,0.00,CLR,,0.03,WeatherDisplay:10.37,2013-03-24 20:01:00,
2013-03-24 15:06:00,51.0,27.5,29.36,NNW,337,15.0,15.0,40,0.00,CLR,,0.03,WeatherDisplay:10.37,2013-03-24 20:06:00,
2013-03-24 15:11:00,50.0,26.6,29.36,NW,315,13.0,13.0,40,0.00,CLR,,0.03,WeatherDisplay:10.37,2013-03-24 20:11:00,
2013-03-24 15:17:00,51.0,26.9,29.35,West,270,17.3,17.3,39,0.00,CLR,,0.03,WeatherDisplay:10.37,2013-03-24 20:17:00,
2013-03-24 15:22:00,51.0,26.9,29.35,NW,315,14.0,14.0,39,0.00,CLR,,0.03,WeatherDisplay:10.37,2013-03-24 20:22:00,
2013-03-24 15:27:00,51.0,26.3,29.35,NW,315,19.6,19.6,38,0.00,CLR,,0.03,WeatherDisplay:10.37,2013-03-24 20:27:00,
2013-03-24 15:32:00,50.0,25.4,29.34,West,270,19.6,19.6,38,0.00,CLR,,0.03,WeatherDisplay:10.37,2013-03-24 20:32:00,
2013-03-24 15:37:00,51.0,26.3,29.35,NNW,337,13.8,13.8,38,0.00,CLR,,0.03,WeatherDisplay:10.37,2013-03-24 20:37:00,
2013-03-24 15:42:00,51.0,26.9,29.35,NW,315,16.1,16.1,39,0.00,CLR,,0.03,WeatherDisplay:10.37,2013-03-24 20:42:00,
2013-03-24 15:47:00,51.0,27.5,29.35,WNW,292,12.0,12.0,40,0.00,CLR,,0.03,WeatherDisplay:10.37,2013-03-24 20:47:00,
2013-03-24 15:52:00,51.0,25.6,29.35,NW,315,20.7,20.7,37,0.00,CLR,,0.03,WeatherDisplay:10.37,2013-03-24 20:52:00,
2013-03-24 15:57:00,51.0,26.9,29.35,NNW,337,18.4,18.4,39,0.00,CLR,,0.03,WeatherDisplay:10.37,2013-03-24 20:57:00,
2013-03-24 16:02:00,51.0,26.3,29.35,NNW,337,13.0,13.0,38,0.00,CLR,,0.03,WeatherDisplay:10.37,2013-03-24 21:02:00,
2013-03-24 16:07:00,51.0,26.9,29.35,NNE,22,11.5,11.5,39,0.00,CLR,,0.03,WeatherDisplay:10.37,2013-03-24 21:07:00,
2013-03-24 16:12:00,51.0,27.5,29.35,West,270,10.4,10.4,40,0.00,CLR,,0.03,WeatherDisplay:10.37,2013-03-24 21:12:00,
2013-03-24 16:17:00,51.0,26.9,29.35,NW,315,16.1,16.1,39,0.00,CLR,,0.03,WeatherDisplay:10.37,2013-03-24 21:17:00,
2013-03-24 16:22:00,51.0,26.9,29.34,NE,45,18.4,18.4,39,0.00,CLR,,0.03,WeatherDisplay:10.37,2013-03-24 21:22:00,
2013-03-24 16:27:00,52.0,27.8,29.35,NW,315,9.0,9.0,39,0.00,CLR,,0.03,WeatherDisplay:10.37,2013-03-24 21:27:00,
2013-03-24 16:32:00,51.0,26.3,29.34,NNW,337,12.0,12.0,38,0.00,CLR,,0.03,WeatherDisplay:10.37,2013-03-24 21:32:00,
2013-03-24 16:37:00,51.0,26.3,29.35,NW,315,16.0,16.0,38,0.00,CLR,,0.03,WeatherDisplay:10.37,2013-03-24 21:37:00,
2013-03-24 16:42:00,51.0,26.9,29.35,WNW,292,11.5,11.5,39,0.00,CLR,,0.03,WeatherDisplay:10.37,2013-03-24 21:42:00,
2013-03-24 16:47:00,52.0,27.1,29.35,WNW,292,15.0,15.0,38,0.00,CLR,,0.03,WeatherDisplay:10.37,2013-03-24 21:47:00,
2013-03-24 16:52:00,52.0,27.8,29.35,NW,315,8.1,8.1,39,0.00,CLR,,0.03,WeatherDisplay:10.37,2013-03-24 21:52:00,
2013-03-24 16:57:00,52.0,27.1,29.34,NNW,337,16.1,16.1,38,0.00,CLR,,0.03,WeatherDisplay:10.37,2013-03-24 21:57:00,
2013-03-24 17:02:00,52.0,27.8,29.34,West,270,15.0,15.0,39,0.00,CLR,,0.03,WeatherDisplay:10.37,2013-03-24 22:02:00,
2013-03-24 17:07:00,52.0,27.1,29.34,West,270,12.7,12.7,38,0.00,CLR,,0.03,WeatherDisplay:10.37,2013-03-24 22:07:00,
2013-03-24 17:13:00,52.0,27.1,29.35,West,270,10.4,10.4,38,0.00,CLR,,0.03,WeatherDisplay:10.37,2013-03-24 22:13:00,
2013-03-24 17:18:00,52.0,25.8,29.35,NNW,337,13.8,13.8,36,0.00,CLR,,0.03,WeatherDisplay:10.37,2013-03-24 22:18:00,
2013-03-24 17:23:00,52.0,25.8,29.34,NW,315,16.1,16.1,36,0.00,CLR,,0.03,WeatherDisplay:10.37,2013-03-24 22:23:00,
2013-03-24 17:28:00,52.0,25.8,29.34,North,360,10.4,10.4,36,0.00,CLR,,0.03,WeatherDisplay:10.37,2013-03-24 22:28:00,
2013-03-24 17:33:00,52.0,27.1,29.34,NNW,337,11.5,11.5,38,0.00,CLR,,0.03,WeatherDisplay:10.37,2013-03-24 22:33:00,
2013-03-24 17:38:00,52.0,26.5,29.34,NW,315,11.5,11.5,37,0.00,CLR,,0.03,WeatherDisplay:10.37,2013-03-24 22:38:00,
2013-03-24 17:43:00,52.0,27.1,29.34,WNW,292,13.0,13.0,38,0.00,CLR,,0.03,WeatherDisplay:10.37,2013-03-24 22:43:00,
2013-03-24 17:48:00,51.0,26.3,29.34,NW,315,11.5,11.5,38,0.00,CLR,,0.03,WeatherDisplay:10.37,2013-03-24 22:48:00,
2013-03-24 17:53:00,51.0,25.6,29.34,NNW,337,10.4,10.4,37,0.00,CLR,,0.03,WeatherDisplay:10.37,2013-03-24 22:53:00,
2013-03-24 17:58:00,51.0,26.3,29.34,NW,315,12.7,12.7,38,0.00,CLR,,0.03,WeatherDisplay:10.37,2013-03-24 22:58:00,
2013-03-24 18:03:00,51.0,25.0,29.34,NW,315,10.0,10.0,36,0.00,CLR,,0.03,WeatherDisplay:10.37,2013-03-24 23:03:00,
2013-03-24 18:08:00,52.0,27.1,29.34,NNE,22,13.8,13.8,38,0.00,CLR,,0.03,WeatherDisplay:10.37,2013-03-24 23:08:00,
2013-03-24 18:13:00,52.0,26.5,29.34,NW,315,11.5,11.5,37,0.00,CLR,,0.03,WeatherDisplay:10.37,2013-03-24 23:13:00,
2013-03-24 18:18:00,51.0,25.0,29.34,NW,315,10.4,10.4,36,0.00,CLR,,0.03,WeatherDisplay:10.37,2013-03-24 23:18:00,
2013-03-24 18:23:00,51.0,25.0,29.34,NW,315,17.0,17.0,36,0.00,CLR,,0.03,WeatherDisplay:10.37,2013-03-24 23:23:00,
2013-03-24 18:28:00,51.0,25.6,29.34,North,360,10.4,10.4,37,0.00,CLR,,0.03,WeatherDisplay:10.37,2013-03-24 23:28:00,
2013-03-24 18:33:00,51.0,26.3,29.34,WNW,292,7.0,7.4,38,0.00,CLR,,0.03,WeatherDisplay:10.37,2013-03-24 23:33:00,
2013-03-24 18:38:00,51.0,25.6,29.34,West,270,15.0,15.0,37,0.00,CLR,,0.03,WeatherDisplay:10.37,2013-03-24 23:38:00,
2013-03-24 18:43:00,51.0,25.6,29.34,NE,45,11.5,11.5,37,0.00,CLR,,0.03,WeatherDisplay:10.37,2013-03-24 23:43:00,
2013-03-24 18:48:00,51.0,25.6,29.35,NW,315,12.7,12.7,37,0.00,CLR,,0.03,WeatherDisplay:10.37,2013-03-24 23:48:00,
2013-03-24 18:53:00,51.0,25.6,29.35,NNW,337,10.4,10.4,37,0.00,CLR,,0.03,WeatherDisplay:10.37,2013-03-24 23:53:00,
2013-03-24 18:58:00,50.0,24.7,29.35,NW,315,12.7,12.7,37,0.00,CLR,,0.03,WeatherDisplay:10.37,2013-03-24 23:58:00,
2013-03-24 19:03:00,50.0,24.7,29.35,NW,315,12.0,12.0,37,0.00,CLR,,0.03,WeatherDisplay:10.37,2013-03-25 00:03:00,
2013-03-24 19:08:00,49.0,23.8,29.35,NNW,337,11.5,11.5,37,0.00,CLR,,0.03,WeatherDisplay:10.37,2013-03-25 00:08:00,
2013-03-24 19:13:00,49.0,22.5,29.35,NW,315,16.1,16.1,35,0.00,CLR,,0.03,WeatherDisplay:10.37,2013-03-25 00:13:00,
2013-03-24 19:18:00,49.0,23.2,29.35,NNW,337,11.5,11.5,36,0.00,CLR,,0.03,WeatherDisplay:10.37,2013-03-25 00:18:00,
2013-03-24 19:23:00,49.0,23.8,29.35,NW,315,10.4,10.4,37,0.00,CLR,,0.03,WeatherDisplay:10.37,2013-03-25 00:23:00,
2013-03-24 19:28:00,48.0,23.6,29.35,NW,315,10.4,10.4,38,0.00,CLR,,0.03,WeatherDisplay:10.37,2013-03-25 00:28:00,
2013-03-24 19:33:00,48.0,24.2,29.35,NW,315,11.5,11.5,39,0.00,CLR,,0.03,WeatherDisplay:10.37,2013-03-25 00:33:00,
2013-03-24 19:39:00,47.0,24.5,29.35,NNW,337,6.9,6.9,41,0.00,CLR,,0.03,WeatherDisplay:10.37,2013-03-25 00:39:00,
2013-03-24 19:44:00,47.0,25.1,29.35,NW,315,6.9,6.9,42,0.00,CLR,,0.03,WeatherDisplay:10.37,2013-03-25 00:44:00,
2013-03-24 19:49:00,46.0,24.2,29.36,North,360,6.9,6.9,42,0.00,CLR,,0.03,WeatherDisplay:10.37,2013-03-25 00:49:00,
2013-03-24 19:54:00,46.0,24.7,29.36,NW,315,5.8,5.8,43,0.00,CLR,,0.03,WeatherDisplay:10.37,2013-03-25 00:54:00,
2013-03-24 19:59:00,45.0,24.9,29.36,NW,315,5.8,5.8,45,0.00,CLR,,0.03,WeatherDisplay:10.37,2013-03-25 00:59:00,
2013-03-24 20:04:00,45.0,24.9,29.36,NW,315,5.8,5.8,45,0.00,CLR,,0.03,WeatherDisplay:10.37,2013-03-25 01:04:00,
2013-03-24 20:09:00,45.0,24.9,29.36,North,360,5.8,5.8,45,0.00,CLR,,0.03,WeatherDisplay:10.37,2013-03-25 01:09:00,
2013-03-24 20:14:00,44.0,24.5,29.36,WNW,292,4.6,4.6,46,0.00,CLR,,0.03,WeatherDisplay:10.37,2013-03-25 01:14:00,
2013-03-24 20:19:00,44.0,25.0,29.36,NNW,337,4.6,4.6,47,0.00,CLR,,0.03,WeatherDisplay:10.37,2013-03-25 01:19:00,
2013-03-24 20:24:00,44.0,25.0,29.36,WNW,292,4.6,4.6,47,0.00,CLR,,0.03,WeatherDisplay:10.37,2013-03-25 01:24:00,
2013-03-24 20:29:00,44.0,25.0,29.36,NNW,337,3.5,3.5,47,0.00,CLR,,0.03,WeatherDisplay:10.37,2013-03-25 01:29:00,
2013-03-24 20:34:00,44.0,25.0,29.37,West,270,4.6,4.6,47,0.00,CLR,,0.03,WeatherDisplay:10.37,2013-03-25 01:34:00,
2013-03-24 20:39:00,43.0,24.6,29.37,WNW,292,9.0,9.0,48,0.00,CLR,,0.03,WeatherDisplay:10.37,2013-03-25 01:39:00,
2013-03-24 20:44:00,43.0,24.6,29.37,WNW,292,5.0,5.0,48,0.00,CLR,,0.03,WeatherDisplay:10.37,2013-03-25 01:44:00,
2013-03-24 20:49:00,43.0,24.6,29.37,NW,315,5.8,5.8,48,0.00,CLR,,0.03,WeatherDisplay:10.37,2013-03-25 01:49:00,
2013-03-24 20:54:00,43.0,24.6,29.37,WNW,292,5.8,5.8,48,0.00,CLR,,0.03,WeatherDisplay:10.37,2013-03-25 01:54:00,
2013-03-24 20:59:00,43.0,24.6,29.37,WNW,292,6.9,6.9,48,0.00,CLR,,0.03,WeatherDisplay:10.37,2013-03-25 01:59:00,
2013-03-24 21:04:00,43.0,25.1,29.37,NNW,337,5.8,5.8,49,0.00,CLR,,0.03,WeatherDisplay:10.37,2013-03-25 02:04:00,
2013-03-24 21:09:00,43.0,24.6,29.37,NW,315,3.5,4.0,48,0.00,CLR,,0.03,WeatherDisplay:10.37,2013-03-25 02:09:00,
2013-03-24 21:14:00,43.0,25.1,29.38,WNW,292,6.9,6.9,49,0.00,CLR,,0.03,WeatherDisplay:10.37,2013-03-25 02:14:00,
2013-03-24 21:19:00,43.0,25.6,29.38,West,270,6.0,6.0,50,0.00,CLR,,0.03,WeatherDisplay:10.37,2013-03-25 02:19:00,
2013-03-24 21:24:00,42.0,24.7,29.38,NW,315,6.9,6.9,50,0.00,CLR,,0.03,WeatherDisplay:10.37,2013-03-25 02:24:00,
2013-03-24 21:29:00,42.0,25.2,29.38,NW,315,10.4,10.4,51,0.00,CLR,,0.03,WeatherDisplay:10.37,2013-03-25 02:29:00,
2013-03-24 21:34:00,42.0,24.7,29.38,North,360,6.0,6.0,50,0.00,CLR,,0.03,WeatherDisplay:10.37,2013-03-25 02:34:00,
2013-03-24 21:39:00,42.0,23.7,29.38,WNW,292,9.2,9.2,48,0.00,CLR,,0.03,WeatherDisplay:10.37,2013-03-25 02:39:00,
2013-03-24 21:44:00,42.0,22.7,29.39,West,270,9.2,9.2,46,0.00,CLR,,0.03,WeatherDisplay:10.37,2013-03-25 02:44:00,
2013-03-24 21:49:00,42.0,22.7,29.39,NW,315,5.8,5.8,46,0.00,CLR,,0.03,WeatherDisplay:10.37,2013-03-25 02:49:00,
2013-03-24 21:54:00,42.0,22.7,29.39,SW,225,6.9,6.9,46,0.00,CLR,,0.03,WeatherDisplay:10.37,2013-03-25 02:54:00,
2013-03-24 21:59:00,42.0,22.7,29.39,NW,315,6.9,6.9,46,0.00,CLR,,0.03,WeatherDisplay:10.37,2013-03-25 02:59:00,
2013-03-24 22:04:00,42.0,22.2,29.39,North,360,6.9,6.9,45,0.00,CLR,,0.03,WeatherDisplay:10.37,2013-03-25 03:04:00,
2013-03-24 22:09:00,41.0,21.8,29.39,North,360,6.0,6.0,46,0.00,CLR,,0.03,WeatherDisplay:10.37,2013-03-25 03:09:00,
2013-03-24 22:14:00,41.0,21.8,29.39,West,270,6.0,6.0,46,0.00,CLR,,0.03,WeatherDisplay:10.37,2013-03-25 03:14:00,
2013-03-24 22:19:00,41.0,21.8,29.40,North,360,6.0,6.0,46,0.00,CLR,,0.03,WeatherDisplay:10.37,2013-03-25 03:19:00,
2013-03-24 22:24:00,41.0,21.8,29.40,NW,315,8.1,8.1,46,0.00,CLR,,0.03,WeatherDisplay:10.37,2013-03-25 03:24:00,
2013-03-24 22:29:00,41.0,21.8,29.40,North,360,5.8,5.8,46,0.00,CLR,,0.03,WeatherDisplay:10.37,2013-03-25 03:29:00,
2013-03-24 22:34:00,41.0,21.8,29.40,NW,315,9.2,9.2,46,0.00,CLR,,0.03,WeatherDisplay:10.37,2013-03-25 03:34:00,
2013-03-24 22:39:00,41.0,21.8,29.40,NW,315,7.0,7.0,46,0.00,CLR,,0.03,WeatherDisplay:10.37,2013-03-25 03:39:00,
2013-03-24 22:44:00,41.0,21.8,29.40,WNW,292,6.9,6.9,46,0.00,CLR,,0.03,WeatherDisplay:10.37,2013-03-25 03:44:00,
2013-03-24 22:49:00,41.0,21.8,29.40,NNW,337,7.0,7.0,46,0.00,CLR,,0.03,WeatherDisplay:10.37,2013-03-25 03:49:00,
2013-03-24 22:54:00,41.0,21.8,29.41,North,360,9.2,9.2,46,0.00,CLR,,0.03,WeatherDisplay:10.37,2013-03-25 03:54:00,
2013-03-24 22:59:00,41.0,22.3,29.41,West,270,8.1,8.1,47,0.00,CLR,,0.03,WeatherDisplay:10.37,2013-03-25 03:59:00,
2013-03-24 23:00:00,41.0,22.3,29.41,West,270,8.1,8.1,47,0.00,CLR,,0.03,WeatherDisplay:10.37,2013-03-25 04:00:00,
2013-03-24 23:05:00,40.0,21.4,29.41,NW,315,6.9,6.9,47,0.00,CLR,,0.03,WeatherDisplay:10.37,2013-03-25 04:05:00,
2013-03-24 23:10:00,40.0,21.4,29.41,NNW,337,9.2,9.2,47,0.00,CLR,,0.03,WeatherDisplay:10.37,2013-03-25 04:10:00,
2013-03-24 23:15:00,40.0,21.9,29.41,NNE,22,5.8,5.8,48,0.00,CLR,,0.03,WeatherDisplay:10.37,2013-03-25 04:15:00,
2013-03-24 23:20:00,40.0,22.4,29.41,West,270,5.8,5.8,49,0.00,CLR,,0.03,WeatherDisplay:10.37,2013-03-25 04:20:00,
2013-03-24 23:25:00,40.0,22.4,29.41,WNW,292,8.1,8.1,49,0.00,CLR,,0.03,WeatherDisplay:10.37,2013-03-25 04:25:00,
2013-03-24 23:30:00,39.0,21.9,29.41,NNW,337,7.0,7.0,50,0.00,CLR,,0.03,WeatherDisplay:10.37,2013-03-25 04:30:00,
2013-03-24 23:35:00,39.0,22.4,29.42,NE,45,6.9,6.9,51,0.00,CLR,,0.03,WeatherDisplay:10.37,2013-03-25 04:35:00,
2013-03-24 23:40:00,39.0,22.4,29.42,NW,315,5.0,5.0,51,0.00,CLR,,0.03,WeatherDisplay:10.37,2013-03-25 04:40:00,
2013-03-24 23:45:00,39.0,22.4,29.42,WNW,292,5.8,5.8,51,0.00,CLR,,0.03,WeatherDisplay:10.37,2013-03-25 04:45:00,
2013-03-24 23:50:00,39.0,22.8,29.42,NW,315,6.0,6.0,52,0.00,CLR,,0.03,WeatherDisplay:10.37,2013-03-25 04:50:00,
2013-03-24 23:55:00,39.0,23.3,29.42,NW,315,5.8,5.8,53,0.00,CLR,,0.03,WeatherDisplay:10.37,2013-03-25 04:55:00,